sensor_id;sensor_type;location;lat;lon;timestamp;pressure;altitude;pressure_sealevel;temperature
12854;BMP180;6495;51.808;7.478;2024-03-22T00:07:39;101639.00;;;11.20
12854;BMP180;6495;51.808;7.478;2024-03-22T00:10:54;101635.00;;;11.30
12854;BMP180;6495;51.808;7.478;2024-03-22T00:14:51;101624.00;;;11.30
12854;BMP180;6495;51.808;7.478;2024-03-22T00:18:13;101612.00;;;11.20
12854;BMP180;6495;51.808;7.478;2024-03-22T00:22:31;101604.00;;;11.20
12854;BMP180;6495;51.808;7.478;2024-03-22T00:37:20;101570.00;;;11.10
12854;BMP180;6495;51.808;7.478;2024-03-22T00:45:39;101561.00;;;11.00
12854;BMP180;6495;51.808;7.478;2024-03-22T00:50:27;101555.00;;;11.00
12854;BMP180;6495;51.808;7.478;2024-03-22T00:58:03;101557.00;;;11.00
12854;BMP180;6495;51.808;7.478;2024-03-22T01:05:09;101553.00;;;11.00
12854;BMP180;6495;51.808;7.478;2024-03-22T01:08:32;101546.00;;;11.10
12854;BMP180;6495;51.808;7.478;2024-03-22T01:30:51;101519.00;;;11.00
12854;BMP180;6495;51.808;7.478;2024-03-22T02:52:17;101399.00;;;11.30
12854;BMP180;6495;51.808;7.478;2024-03-22T02:54:44;101392.00;;;11.30
12854;BMP180;6495;51.808;7.478;2024-03-22T02:57:11;101389.00;;;11.40
12854;BMP180;6495;51.808;7.478;2024-03-22T02:59:38;101383.00;;;11.40
12854;BMP180;6495;51.808;7.478;2024-03-22T03:02:04;101386.00;;;11.40
12854;BMP180;6495;51.808;7.478;2024-03-22T03:04:32;101380.00;;;11.40
12854;BMP180;6495;51.808;7.478;2024-03-22T03:06:58;101378.00;;;11.50
12854;BMP180;6495;51.808;7.478;2024-03-22T03:09:27;101380.00;;;11.50
12854;BMP180;6495;51.808;7.478;2024-03-22T03:11:53;101375.00;;;11.50
12854;BMP180;6495;51.808;7.478;2024-03-22T03:14:20;101380.00;;;11.50
12854;BMP180;6495;51.808;7.478;2024-03-22T03:16:47;101376.00;;;11.60
12854;BMP180;6495;51.808;7.478;2024-03-22T03:19:14;101378.00;;;11.60
12854;BMP180;6495;51.808;7.478;2024-03-22T03:21:40;101364.00;;;11.60
12854;BMP180;6495;51.808;7.478;2024-03-22T03:24:08;101352.00;;;11.60
12854;BMP180;6495;51.808;7.478;2024-03-22T03:26:36;101356.00;;;11.70
12854;BMP180;6495;51.808;7.478;2024-03-22T03:29:04;101341.00;;;11.60
12854;BMP180;6495;51.808;7.478;2024-03-22T03:31:30;101340.00;;;11.60
12854;BMP180;6495;51.808;7.478;2024-03-22T03:33:57;101338.00;;;11.60
12854;BMP180;6495;51.808;7.478;2024-03-22T03:36:24;101335.00;;;11.60
12854;BMP180;6495;51.808;7.478;2024-03-22T03:38:51;101325.00;;;11.60
12854;BMP180;6495;51.808;7.478;2024-03-22T03:41:18;101329.00;;;11.60
12854;BMP180;6495;51.808;7.478;2024-03-22T03:43:46;101320.00;;;11.60
12854;BMP180;6495;51.808;7.478;2024-03-22T03:46:13;101326.00;;;11.60
12854;BMP180;6495;51.808;7.478;2024-03-22T03:48:40;101319.00;;;11.60
12854;BMP180;6495;51.808;7.478;2024-03-22T03:51:06;101317.00;;;11.50
12854;BMP180;6495;51.808;7.478;2024-03-22T03:53:33;101316.00;;;11.50
12854;BMP180;6495;51.808;7.478;2024-03-22T03:56:00;101301.00;;;11.50
12854;BMP180;6495;51.808;7.478;2024-03-22T03:58:27;101294.00;;;11.50
12854;BMP180;6495;51.808;7.478;2024-03-22T04:00:55;101289.00;;;11.50
12854;BMP180;6495;51.808;7.478;2024-03-22T04:03:24;101277.00;;;11.50
12854;BMP180;6495;51.808;7.478;2024-03-22T04:05:56;101276.00;;;11.50
12854;BMP180;6495;51.808;7.478;2024-03-22T04:08:24;101272.00;;;11.50
12854;BMP180;6495;51.808;7.478;2024-03-22T04:10:52;101264.00;;;11.50
12854;BMP180;6495;51.808;7.478;2024-03-22T04:13:19;101276.00;;;11.50
12854;BMP180;6495;51.808;7.478;2024-03-22T04:15:45;101273.00;;;11.50
12854;BMP180;6495;51.808;7.478;2024-03-22T04:18:14;101275.00;;;11.50
12854;BMP180;6495;51.808;7.478;2024-03-22T04:20:40;101271.00;;;11.50
12854;BMP180;6495;51.808;7.478;2024-03-22T04:23:09;101266.00;;;11.50
12854;BMP180;6495;51.808;7.478;2024-03-22T04:25:38;101259.00;;;11.60
12854;BMP180;6495;51.808;7.478;2024-03-22T04:28:05;101260.00;;;11.60
12854;BMP180;6495;51.808;7.478;2024-03-22T04:30:31;101258.00;;;11.60
12854;BMP180;6495;51.808;7.478;2024-03-22T04:32:59;101257.00;;;11.60
12854;BMP180;6495;51.808;7.478;2024-03-22T04:35:26;101254.00;;;11.60
12854;BMP180;6495;51.808;7.478;2024-03-22T04:37:54;101247.00;;;11.60
12854;BMP180;6495;51.808;7.478;2024-03-22T04:40:21;101249.00;;;11.70
12854;BMP180;6495;51.808;7.478;2024-03-22T04:42:48;101238.00;;;11.70
12854;BMP180;6495;51.808;7.478;2024-03-22T04:45:15;101241.00;;;11.70
12854;BMP180;6495;51.808;7.478;2024-03-22T04:47:42;101245.00;;;11.70
12854;BMP180;6495;51.808;7.478;2024-03-22T04:50:09;101244.00;;;11.70
12854;BMP180;6495;51.808;7.478;2024-03-22T04:52:40;101238.00;;;11.70
12854;BMP180;6495;51.808;7.478;2024-03-22T04:55:07;101238.00;;;11.80
12854;BMP180;6495;51.808;7.478;2024-03-22T04:57:35;101245.00;;;11.80
12854;BMP180;6495;51.808;7.478;2024-03-22T05:00:01;101240.00;;;11.80
12854;BMP180;6495;51.808;7.478;2024-03-22T05:02:29;101234.00;;;11.80
12854;BMP180;6495;51.808;7.478;2024-03-22T05:04:56;101222.00;;;11.80
12854;BMP180;6495;51.808;7.478;2024-03-22T05:07:23;101222.00;;;11.80
12854;BMP180;6495;51.808;7.478;2024-03-22T05:09:51;101222.00;;;11.80
12854;BMP180;6495;51.808;7.478;2024-03-22T05:12:18;101221.00;;;11.80
12854;BMP180;6495;51.808;7.478;2024-03-22T05:14:45;101228.00;;;11.80
12854;BMP180;6495;51.808;7.478;2024-03-22T05:17:12;101222.00;;;11.80
12854;BMP180;6495;51.808;7.478;2024-03-22T05:19:38;101214.00;;;11.90
12854;BMP180;6495;51.808;7.478;2024-03-22T05:22:07;101222.00;;;11.90
12854;BMP180;6495;51.808;7.478;2024-03-22T05:24:33;101218.00;;;11.90
12854;BMP180;6495;51.808;7.478;2024-03-22T05:27:02;101221.00;;;11.90
12854;BMP180;6495;51.808;7.478;2024-03-22T05:29:28;101222.00;;;11.90
12854;BMP180;6495;51.808;7.478;2024-03-22T05:31:56;101215.00;;;11.90
12854;BMP180;6495;51.808;7.478;2024-03-22T05:34:23;101219.00;;;11.90
12854;BMP180;6495;51.808;7.478;2024-03-22T05:36:50;101214.00;;;11.90
12854;BMP180;6495;51.808;7.478;2024-03-22T05:39:16;101222.00;;;12.00
12854;BMP180;6495;51.808;7.478;2024-03-22T05:41:44;101209.00;;;11.90
12854;BMP180;6495;51.808;7.478;2024-03-22T05:44:13;101217.00;;;12.00
12854;BMP180;6495;51.808;7.478;2024-03-22T05:46:40;101202.00;;;12.00
12854;BMP180;6495;51.808;7.478;2024-03-22T05:49:06;101207.00;;;12.00
12854;BMP180;6495;51.808;7.478;2024-03-22T05:51:34;101203.00;;;12.00
12854;BMP180;6495;51.808;7.478;2024-03-22T05:54:00;101204.00;;;12.00
12854;BMP180;6495;51.808;7.478;2024-03-22T05:56:28;101211.00;;;12.00
12854;BMP180;6495;51.808;7.478;2024-03-22T05:58:55;101212.00;;;12.00
12854;BMP180;6495;51.808;7.478;2024-03-22T06:01:24;101203.00;;;12.00
12854;BMP180;6495;51.808;7.478;2024-03-22T06:03:50;101201.00;;;12.00
12854;BMP180;6495;51.808;7.478;2024-03-22T06:06:17;101200.00;;;12.00
12854;BMP180;6495;51.808;7.478;2024-03-22T06:08:44;101185.00;;;12.10
12854;BMP180;6495;51.808;7.478;2024-03-22T06:11:12;101196.00;;;12.10
12854;BMP180;6495;51.808;7.478;2024-03-22T06:13:38;101188.00;;;12.10
12854;BMP180;6495;51.808;7.478;2024-03-22T06:16:06;101206.00;;;12.10
12854;BMP180;6495;51.808;7.478;2024-03-22T06:18:34;101202.00;;;12.10
12854;BMP180;6495;51.808;7.478;2024-03-22T06:21:01;101195.00;;;12.20
12854;BMP180;6495;51.808;7.478;2024-03-22T06:23:28;101204.00;;;12.20
12854;BMP180;6495;51.808;7.478;2024-03-22T06:25:56;101188.00;;;12.20
12854;BMP180;6495;51.808;7.478;2024-03-22T06:28:23;101193.00;;;12.20
12854;BMP180;6495;51.808;7.478;2024-03-22T06:30:50;101197.00;;;12.20
12854;BMP180;6495;51.808;7.478;2024-03-22T06:33:16;101194.00;;;12.20
12854;BMP180;6495;51.808;7.478;2024-03-22T06:35:47;101189.00;;;12.20
12854;BMP180;6495;51.808;7.478;2024-03-22T06:38:13;101179.00;;;12.30
12854;BMP180;6495;51.808;7.478;2024-03-22T06:40:41;101192.00;;;12.30
12854;BMP180;6495;51.808;7.478;2024-03-22T06:43:07;101193.00;;;12.30
12854;BMP180;6495;51.808;7.478;2024-03-22T06:45:35;101192.00;;;12.30
12854;BMP180;6495;51.808;7.478;2024-03-22T06:48:01;101198.00;;;12.30
12854;BMP180;6495;51.808;7.478;2024-03-22T06:50:29;101196.00;;;12.30
12854;BMP180;6495;51.808;7.478;2024-03-22T06:52:57;101196.00;;;12.30
12854;BMP180;6495;51.808;7.478;2024-03-22T06:55:24;101195.00;;;12.30
12854;BMP180;6495;51.808;7.478;2024-03-22T06:57:51;101199.00;;;12.40
12854;BMP180;6495;51.808;7.478;2024-03-22T07:00:19;101203.00;;;12.40
12854;BMP180;6495;51.808;7.478;2024-03-22T07:02:45;101194.00;;;12.40
12854;BMP180;6495;51.808;7.478;2024-03-22T07:05:12;101197.00;;;12.40
12854;BMP180;6495;51.808;7.478;2024-03-22T07:07:39;101189.00;;;12.40
12854;BMP180;6495;51.808;7.478;2024-03-22T07:10:09;101182.00;;;12.40
12854;BMP180;6495;51.808;7.478;2024-03-22T07:12:35;101184.00;;;12.40
12854;BMP180;6495;51.808;7.478;2024-03-22T07:15:04;101186.00;;;12.50
12854;BMP180;6495;51.808;7.478;2024-03-22T07:17:31;101191.00;;;12.50
12854;BMP180;6495;51.808;7.478;2024-03-22T07:19:58;101180.00;;;12.50
12854;BMP180;6495;51.808;7.478;2024-03-22T07:22:24;101182.00;;;12.60
12854;BMP180;6495;51.808;7.478;2024-03-22T07:24:52;101177.00;;;12.60
12854;BMP180;6495;51.808;7.478;2024-03-22T07:27:20;101184.00;;;12.60
12854;BMP180;6495;51.808;7.478;2024-03-22T07:29:47;101177.00;;;12.60
12854;BMP180;6495;51.808;7.478;2024-03-22T07:32:14;101170.00;;;12.70
12854;BMP180;6495;51.808;7.478;2024-03-22T07:34:41;101165.00;;;12.70
12854;BMP180;6495;51.808;7.478;2024-03-22T07:37:07;101166.00;;;12.70
12854;BMP180;6495;51.808;7.478;2024-03-22T07:39:35;101161.00;;;12.70
12854;BMP180;6495;51.808;7.478;2024-03-22T07:42:01;101170.00;;;12.70
12854;BMP180;6495;51.808;7.478;2024-03-22T07:44:30;101169.00;;;12.80
12854;BMP180;6495;51.808;7.478;2024-03-22T07:46:57;101167.00;;;12.80
12854;BMP180;6495;51.808;7.478;2024-03-22T07:49:24;101171.00;;;12.90
12854;BMP180;6495;51.808;7.478;2024-03-22T07:51:50;101171.00;;;12.90
12854;BMP180;6495;51.808;7.478;2024-03-22T07:54:19;101175.00;;;12.90
12854;BMP180;6495;51.808;7.478;2024-03-22T07:56:45;101179.00;;;12.90
12854;BMP180;6495;51.808;7.478;2024-03-22T07:59:13;101167.00;;;12.90
12854;BMP180;6495;51.808;7.478;2024-03-22T08:01:40;101161.00;;;13.00
12854;BMP180;6495;51.808;7.478;2024-03-22T08:04:08;101180.00;;;13.00
12854;BMP180;6495;51.808;7.478;2024-03-22T08:06:34;101169.00;;;13.00
12854;BMP180;6495;51.808;7.478;2024-03-22T08:09:02;101167.00;;;13.00
12854;BMP180;6495;51.808;7.478;2024-03-22T08:11:29;101166.00;;;13.10
12854;BMP180;6495;51.808;7.478;2024-03-22T08:13:57;101176.00;;;13.10
12854;BMP180;6495;51.808;7.478;2024-03-22T08:16:28;101174.00;;;13.10
12854;BMP180;6495;51.808;7.478;2024-03-22T08:18:57;101161.00;;;13.10
12854;BMP180;6495;51.808;7.478;2024-03-22T08:21:24;101164.00;;;13.00
12854;BMP180;6495;51.808;7.478;2024-03-22T08:23:52;101162.00;;;13.10
12854;BMP180;6495;51.808;7.478;2024-03-22T08:26:18;101169.00;;;13.10
12854;BMP180;6495;51.808;7.478;2024-03-22T08:28:47;101162.00;;;13.10
12854;BMP180;6495;51.808;7.478;2024-03-22T08:31:13;101155.00;;;13.10
12854;BMP180;6495;51.808;7.478;2024-03-22T08:33:41;101161.00;;;13.20
12854;BMP180;6495;51.808;7.478;2024-03-22T08:36:09;101155.00;;;13.20
12854;BMP180;6495;51.808;7.478;2024-03-22T08:38:36;101150.00;;;13.20
12854;BMP180;6495;51.808;7.478;2024-03-22T08:41:02;101162.00;;;13.20
12854;BMP180;6495;51.808;7.478;2024-03-22T08:43:30;101158.00;;;13.30
12854;BMP180;6495;51.808;7.478;2024-03-22T08:45:57;101158.00;;;13.30
12854;BMP180;6495;51.808;7.478;2024-03-22T08:48:24;101153.00;;;13.30
12854;BMP180;6495;51.808;7.478;2024-03-22T08:51:06;101150.00;;;13.40
12854;BMP180;6495;51.808;7.478;2024-03-22T08:53:35;101151.00;;;13.40
12854;BMP180;6495;51.808;7.478;2024-03-22T08:56:08;101149.00;;;13.50
12854;BMP180;6495;51.808;7.478;2024-03-22T08:58:40;101142.00;;;13.50
12854;BMP180;6495;51.808;7.478;2024-03-22T09:01:08;101149.00;;;13.50
12854;BMP180;6495;51.808;7.478;2024-03-22T09:03:38;101144.00;;;13.60
12854;BMP180;6495;51.808;7.478;2024-03-22T09:06:06;101130.00;;;13.60
12854;BMP180;6495;51.808;7.478;2024-03-22T09:08:34;101134.00;;;13.70
12854;BMP180;6495;51.808;7.478;2024-03-22T09:11:01;101136.00;;;13.70
12854;BMP180;6495;51.808;7.478;2024-03-22T09:13:28;101137.00;;;13.70
12854;BMP180;6495;51.808;7.478;2024-03-22T09:15:59;101126.00;;;13.80
12854;BMP180;6495;51.808;7.478;2024-03-22T09:18:25;101129.00;;;13.90
12854;BMP180;6495;51.808;7.478;2024-03-22T09:20:53;101133.00;;;13.90
12854;BMP180;6495;51.808;7.478;2024-03-22T09:23:20;101125.00;;;13.90
12854;BMP180;6495;51.808;7.478;2024-03-22T09:25:49;101117.00;;;13.90
12854;BMP180;6495;51.808;7.478;2024-03-22T09:28:16;101115.00;;;13.90
12854;BMP180;6495;51.808;7.478;2024-03-22T09:30:43;101104.00;;;13.90
12854;BMP180;6495;51.808;7.478;2024-03-22T09:33:10;101109.00;;;13.90
12854;BMP180;6495;51.808;7.478;2024-03-22T09:35:38;101103.00;;;14.00
12854;BMP180;6495;51.808;7.478;2024-03-22T09:38:04;101105.00;;;14.00
12854;BMP180;6495;51.808;7.478;2024-03-22T09:40:32;101105.00;;;14.10
12854;BMP180;6495;51.808;7.478;2024-03-22T09:43:02;101102.00;;;14.10
12854;BMP180;6495;51.808;7.478;2024-03-22T09:45:32;101108.00;;;14.00
12854;BMP180;6495;51.808;7.478;2024-03-22T09:47:59;101104.00;;;14.10
12854;BMP180;6495;51.808;7.478;2024-03-22T09:50:28;101104.00;;;14.10
12854;BMP180;6495;51.808;7.478;2024-03-22T09:52:56;101110.00;;;14.10
12854;BMP180;6495;51.808;7.478;2024-03-22T09:55:24;101102.00;;;14.10
12854;BMP180;6495;51.808;7.478;2024-03-22T09:57:55;101106.00;;;14.20
12854;BMP180;6495;51.808;7.478;2024-03-22T10:00:25;101110.00;;;14.20
12854;BMP180;6495;51.808;7.478;2024-03-22T10:02:52;101093.00;;;14.30
12854;BMP180;6495;51.808;7.478;2024-03-22T10:05:20;101099.00;;;14.30
12854;BMP180;6495;51.808;7.478;2024-03-22T10:07:47;101106.00;;;14.30
12854;BMP180;6495;51.808;7.478;2024-03-22T10:10:15;101099.00;;;14.30
12854;BMP180;6495;51.808;7.478;2024-03-22T10:12:42;101093.00;;;14.20
12854;BMP180;6495;51.808;7.478;2024-03-22T10:15:09;101105.00;;;14.30
12854;BMP180;6495;51.808;7.478;2024-03-22T10:17:39;101084.00;;;14.30
12854;BMP180;6495;51.808;7.478;2024-03-22T10:20:07;101090.00;;;14.30
12854;BMP180;6495;51.808;7.478;2024-03-22T10:22:41;101090.00;;;14.30
12854;BMP180;6495;51.808;7.478;2024-03-22T10:25:09;101099.00;;;14.30
12854;BMP180;6495;51.808;7.478;2024-03-22T10:27:38;101090.00;;;14.30
12854;BMP180;6495;51.808;7.478;2024-03-22T10:30:09;101088.00;;;14.20
12854;BMP180;6495;51.808;7.478;2024-03-22T10:32:37;101087.00;;;14.20
12854;BMP180;6495;51.808;7.478;2024-03-22T10:35:06;101087.00;;;14.20
12854;BMP180;6495;51.808;7.478;2024-03-22T10:37:33;101082.00;;;14.20
12854;BMP180;6495;51.808;7.478;2024-03-22T10:40:03;101086.00;;;14.20
12854;BMP180;6495;51.808;7.478;2024-03-22T10:42:34;101082.00;;;14.20
12854;BMP180;6495;51.808;7.478;2024-03-22T10:45:02;101072.00;;;14.20
12854;BMP180;6495;51.808;7.478;2024-03-22T10:47:31;101073.00;;;14.10
12854;BMP180;6495;51.808;7.478;2024-03-22T10:50:07;101087.00;;;14.10
12854;BMP180;6495;51.808;7.478;2024-03-22T10:52:40;101078.00;;;14.10
12854;BMP180;6495;51.808;7.478;2024-03-22T10:55:15;101085.00;;;14.00
12854;BMP180;6495;51.808;7.478;2024-03-22T10:57:43;101080.00;;;14.00
12854;BMP180;6495;51.808;7.478;2024-03-22T11:00:13;101078.00;;;14.00
12854;BMP180;6495;51.808;7.478;2024-03-22T11:02:45;101076.00;;;14.00
12854;BMP180;6495;51.808;7.478;2024-03-22T11:05:18;101071.00;;;14.00
12854;BMP180;6495;51.808;7.478;2024-03-22T11:07:45;101066.00;;;14.00
12854;BMP180;6495;51.808;7.478;2024-03-22T11:10:12;101066.00;;;14.00
12854;BMP180;6495;51.808;7.478;2024-03-22T11:12:40;101065.00;;;14.10
12854;BMP180;6495;51.808;7.478;2024-03-22T11:15:09;101063.00;;;14.00
12854;BMP180;6495;51.808;7.478;2024-03-22T11:17:37;101063.00;;;14.00
12854;BMP180;6495;51.808;7.478;2024-03-22T11:20:05;101064.00;;;14.00
12854;BMP180;6495;51.808;7.478;2024-03-22T11:22:34;101064.00;;;14.00
12854;BMP180;6495;51.808;7.478;2024-03-22T11:25:04;101061.00;;;14.00
12854;BMP180;6495;51.808;7.478;2024-03-22T11:27:30;101056.00;;;14.00
12854;BMP180;6495;51.808;7.478;2024-03-22T11:29:58;101059.00;;;14.00
12854;BMP180;6495;51.808;7.478;2024-03-22T11:32:25;101057.00;;;14.00
12854;BMP180;6495;51.808;7.478;2024-03-22T11:34:54;101049.00;;;13.90
12854;BMP180;6495;51.808;7.478;2024-03-22T11:37:21;101055.00;;;13.90
12854;BMP180;6495;51.808;7.478;2024-03-22T11:39:50;101062.00;;;13.90
12854;BMP180;6495;51.808;7.478;2024-03-22T11:42:17;101060.00;;;13.90
12854;BMP180;6495;51.808;7.478;2024-03-22T11:44:45;101060.00;;;13.90
12854;BMP180;6495;51.808;7.478;2024-03-22T11:47:12;101066.00;;;13.90
12854;BMP180;6495;51.808;7.478;2024-03-22T11:49:40;101065.00;;;13.80
12854;BMP180;6495;51.808;7.478;2024-03-22T11:52:08;101064.00;;;13.80
12854;BMP180;6495;51.808;7.478;2024-03-22T11:54:35;101057.00;;;13.80
12854;BMP180;6495;51.808;7.478;2024-03-22T11:57:04;101051.00;;;13.80
12854;BMP180;6495;51.808;7.478;2024-03-22T11:59:32;101053.00;;;13.80
12854;BMP180;6495;51.808;7.478;2024-03-22T12:01:58;101049.00;;;13.80
12854;BMP180;6495;51.808;7.478;2024-03-22T12:04:26;101051.00;;;13.80
12854;BMP180;6495;51.808;7.478;2024-03-22T12:06:52;101057.00;;;13.80
12854;BMP180;6495;51.808;7.478;2024-03-22T12:09:23;101052.00;;;13.80
12854;BMP180;6495;51.808;7.478;2024-03-22T12:11:50;101056.00;;;13.70
12854;BMP180;6495;51.808;7.478;2024-03-22T12:14:21;101048.00;;;13.70
12854;BMP180;6495;51.808;7.478;2024-03-22T12:16:48;101039.00;;;13.60
12854;BMP180;6495;51.808;7.478;2024-03-22T12:19:17;101036.00;;;13.60
12854;BMP180;6495;51.808;7.478;2024-03-22T12:21:48;101023.00;;;13.60
12854;BMP180;6495;51.808;7.478;2024-03-22T12:24:16;101025.00;;;13.60
12854;BMP180;6495;51.808;7.478;2024-03-22T12:26:42;101020.00;;;13.60
12854;BMP180;6495;51.808;7.478;2024-03-22T12:29:10;101017.00;;;13.60
12854;BMP180;6495;51.808;7.478;2024-03-22T12:31:39;101020.00;;;13.60
12854;BMP180;6495;51.808;7.478;2024-03-22T12:34:07;101012.00;;;13.60
12854;BMP180;6495;51.808;7.478;2024-03-22T12:36:39;101020.00;;;13.60
12854;BMP180;6495;51.808;7.478;2024-03-22T12:39:07;101021.00;;;13.60
12854;BMP180;6495;51.808;7.478;2024-03-22T12:41:34;101027.00;;;13.60
12854;BMP180;6495;51.808;7.478;2024-03-22T12:44:01;101025.00;;;13.50
12854;BMP180;6495;51.808;7.478;2024-03-22T12:46:36;101023.00;;;13.50
12854;BMP180;6495;51.808;7.478;2024-03-22T12:49:05;101018.00;;;13.40
12854;BMP180;6495;51.808;7.478;2024-03-22T12:51:31;101017.00;;;13.40
12854;BMP180;6495;51.808;7.478;2024-03-22T12:53:59;101021.00;;;13.40
12854;BMP180;6495;51.808;7.478;2024-03-22T12:56:25;101013.00;;;13.30
12854;BMP180;6495;51.808;7.478;2024-03-22T12:58:53;101012.00;;;13.30
12854;BMP180;6495;51.808;7.478;2024-03-22T13:01:19;101007.00;;;13.20
12854;BMP180;6495;51.808;7.478;2024-03-22T13:03:53;101002.00;;;13.20
12854;BMP180;6495;51.808;7.478;2024-03-22T13:06:34;100997.00;;;13.20
12854;BMP180;6495;51.808;7.478;2024-03-22T13:09:02;101000.00;;;13.10
12854;BMP180;6495;51.808;7.478;2024-03-22T13:11:31;100997.00;;;13.10
12854;BMP180;6495;51.808;7.478;2024-03-22T13:13:59;100992.00;;;13.00
12854;BMP180;6495;51.808;7.478;2024-03-22T13:16:31;100984.00;;;13.00
12854;BMP180;6495;51.808;7.478;2024-03-22T13:19:15;100985.00;;;13.00
12854;BMP180;6495;51.808;7.478;2024-03-22T13:21:46;100978.00;;;13.00
12854;BMP180;6495;51.808;7.478;2024-03-22T13:24:14;100978.00;;;13.00
12854;BMP180;6495;51.808;7.478;2024-03-22T13:26:41;100973.00;;;13.00
12854;BMP180;6495;51.808;7.478;2024-03-22T13:29:12;100962.00;;;12.90
12854;BMP180;6495;51.808;7.478;2024-03-22T13:31:40;100961.00;;;12.90
12854;BMP180;6495;51.808;7.478;2024-03-22T13:34:07;100961.00;;;12.90
12854;BMP180;6495;51.808;7.478;2024-03-22T13:36:33;100965.00;;;12.90
12854;BMP180;6495;51.808;7.478;2024-03-22T13:39:05;100954.00;;;12.90
12854;BMP180;6495;51.808;7.478;2024-03-22T13:41:31;100952.00;;;12.90
12854;BMP180;6495;51.808;7.478;2024-03-22T13:44:00;100950.00;;;13.00
12854;BMP180;6495;51.808;7.478;2024-03-22T13:46:29;100947.00;;;13.00
12854;BMP180;6495;51.808;7.478;2024-03-22T13:48:57;100942.00;;;12.90
12854;BMP180;6495;51.808;7.478;2024-03-22T13:51:23;100944.00;;;13.00
12854;BMP180;6495;51.808;7.478;2024-03-22T13:53:54;100943.00;;;13.00
12854;BMP180;6495;51.808;7.478;2024-03-22T13:56:23;100942.00;;;13.00
12854;BMP180;6495;51.808;7.478;2024-03-22T13:58:58;100944.00;;;13.00
12854;BMP180;6495;51.808;7.478;2024-03-22T14:01:26;100937.00;;;13.00
12854;BMP180;6495;51.808;7.478;2024-03-22T14:03:56;100940.00;;;13.00
12854;BMP180;6495;51.808;7.478;2024-03-22T14:06:38;100939.00;;;13.00
12854;BMP180;6495;51.808;7.478;2024-03-22T14:09:08;100935.00;;;13.00
12854;BMP180;6495;51.808;7.478;2024-03-22T14:12:01;100932.00;;;13.00
12854;BMP180;6495;51.808;7.478;2024-03-22T14:14:34;100929.00;;;13.00
12854;BMP180;6495;51.808;7.478;2024-03-22T14:17:03;100929.00;;;13.00
12854;BMP180;6495;51.808;7.478;2024-03-22T14:19:33;100927.00;;;13.00
12854;BMP180;6495;51.808;7.478;2024-03-22T14:22:03;100925.00;;;13.00
12854;BMP180;6495;51.808;7.478;2024-03-22T14:24:39;100920.00;;;13.00
12854;BMP180;6495;51.808;7.478;2024-03-22T14:27:07;100920.00;;;13.00
12854;BMP180;6495;51.808;7.478;2024-03-22T14:29:45;100910.00;;;13.00
12854;BMP180;6495;51.808;7.478;2024-03-22T14:32:12;100914.00;;;13.00
12854;BMP180;6495;51.808;7.478;2024-03-22T14:34:48;100906.00;;;13.00
12854;BMP180;6495;51.808;7.478;2024-03-22T14:37:14;100907.00;;;13.00
12854;BMP180;6495;51.808;7.478;2024-03-22T14:39:42;100897.00;;;13.00
12854;BMP180;6495;51.808;7.478;2024-03-22T14:42:19;100907.00;;;13.00
12854;BMP180;6495;51.808;7.478;2024-03-22T14:44:46;100896.00;;;13.00
12854;BMP180;6495;51.808;7.478;2024-03-22T14:47:13;100901.00;;;13.00
12854;BMP180;6495;51.808;7.478;2024-03-22T14:49:43;100889.00;;;12.90
12854;BMP180;6495;51.808;7.478;2024-03-22T14:52:10;100891.00;;;13.00
12854;BMP180;6495;51.808;7.478;2024-03-22T14:54:37;100889.00;;;13.00
12854;BMP180;6495;51.808;7.478;2024-03-22T14:57:04;100877.00;;;13.00
12854;BMP180;6495;51.808;7.478;2024-03-22T14:59:33;100892.00;;;13.00
12854;BMP180;6495;51.808;7.478;2024-03-22T15:02:00;100884.00;;;13.00
12854;BMP180;6495;51.808;7.478;2024-03-22T15:04:27;100885.00;;;13.00
12854;BMP180;6495;51.808;7.478;2024-03-22T15:06:54;100874.00;;;12.90
12854;BMP180;6495;51.808;7.478;2024-03-22T15:09:36;100876.00;;;12.90
12854;BMP180;6495;51.808;7.478;2024-03-22T15:12:09;100882.00;;;12.90
12854;BMP180;6495;51.808;7.478;2024-03-22T15:14:37;100872.00;;;12.80
12854;BMP180;6495;51.808;7.478;2024-03-22T15:17:06;100872.00;;;12.80
12854;BMP180;6495;51.808;7.478;2024-03-22T15:19:35;100873.00;;;12.90
12854;BMP180;6495;51.808;7.478;2024-03-22T15:22:04;100868.00;;;12.90
12854;BMP180;6495;51.808;7.478;2024-03-22T15:24:32;100865.00;;;12.80
12854;BMP180;6495;51.808;7.478;2024-03-22T15:46:27;100838.00;;;12.70
12854;BMP180;6495;51.808;7.478;2024-03-22T15:48:55;100828.00;;;12.60
12854;BMP180;6495;51.808;7.478;2024-03-22T15:51:21;100825.00;;;12.60
12854;BMP180;6495;51.808;7.478;2024-03-22T15:53:49;100825.00;;;12.60
12854;BMP180;6495;51.808;7.478;2024-03-22T15:56:16;100820.00;;;12.60
12854;BMP180;6495;51.808;7.478;2024-03-22T15:58:44;100808.00;;;12.60
12854;BMP180;6495;51.808;7.478;2024-03-22T16:01:10;100813.00;;;12.60
12854;BMP180;6495;51.808;7.478;2024-03-22T16:03:38;100816.00;;;12.60
12854;BMP180;6495;51.808;7.478;2024-03-22T16:06:05;100823.00;;;12.60
12854;BMP180;6495;51.808;7.478;2024-03-22T16:08:32;100810.00;;;12.60
12854;BMP180;6495;51.808;7.478;2024-03-22T16:10:59;100808.00;;;12.60
12854;BMP180;6495;51.808;7.478;2024-03-22T16:13:26;100809.00;;;12.50
12854;BMP180;6495;51.808;7.478;2024-03-22T16:15:53;100809.00;;;12.50
12854;BMP180;6495;51.808;7.478;2024-03-22T16:18:20;100798.00;;;12.50
12854;BMP180;6495;51.808;7.478;2024-03-22T16:20:47;100799.00;;;12.50
12854;BMP180;6495;51.808;7.478;2024-03-22T16:23:15;100788.00;;;12.50
12854;BMP180;6495;51.808;7.478;2024-03-22T16:25:42;100797.00;;;12.50
12854;BMP180;6495;51.808;7.478;2024-03-22T16:28:09;100794.00;;;12.50
12854;BMP180;6495;51.808;7.478;2024-03-22T16:30:35;100792.00;;;12.50
12854;BMP180;6495;51.808;7.478;2024-03-22T16:33:06;100796.00;;;12.50
12854;BMP180;6495;51.808;7.478;2024-03-22T16:35:32;100802.00;;;12.50
12854;BMP180;6495;51.808;7.478;2024-03-22T16:38:01;100797.00;;;12.50
12854;BMP180;6495;51.808;7.478;2024-03-22T16:40:28;100791.00;;;12.50
12854;BMP180;6495;51.808;7.478;2024-03-22T16:42:55;100796.00;;;12.50
12854;BMP180;6495;51.808;7.478;2024-03-22T16:45:21;100792.00;;;12.50
12854;BMP180;6495;51.808;7.478;2024-03-22T16:47:51;100793.00;;;12.50
12854;BMP180;6495;51.808;7.478;2024-03-22T16:50:18;100791.00;;;12.50
12854;BMP180;6495;51.808;7.478;2024-03-22T16:52:45;100791.00;;;12.50
12854;BMP180;6495;51.808;7.478;2024-03-22T16:55:13;100788.00;;;12.50